x

Columbia River Bar - 20nm West Of Columbia River Mouth (46029) Wave Buoy

9:50 - Thu 31st Jul 2014 All times are PDT. -7 hours from GMT.

  • Sig Wave height 4.3ft
  • Swell Direction
  • Peak Period 6s
  • Average Period 4s
  • Wind
    18mph, 22mph gusts
  • Sea Temp 61°f
  • Aire Temp 62°f
  • Sea Pressure 1018.1mb
  • Columbia River Bar - 20nm West Of Columbia River Mouth
  • Columbia River Bar - 20nm West Of Columbia River Mouth

More Historic Weather Station data

Upgrade to MSW Pro to gain access to the past 30 days of data for over 8000 Wavebouys and Weather Stations around the globe.

Join Pro

Comparision Forecast

View Surf forecast
   
jue 07/31 9:50 4.5ft 6s 4s 18 22 mph 1018.1mb 61f 62f
8:50 3.5ft 5s 4s 20 22 mph 1017.8mb 61f 62f
7:50 4.5ft 5s 4s 18 22 mph 1018.1mb 61f 62f
6:50 3.5ft 5s 4s 18 20 mph 1018.1mb 61f 62f
5:50 4ft 5s 4s 20 22 mph 1018.2mb 61f 62f
4:50 3.5ft 6s 4s 18 22 mph 1018.6mb 61f 62f
3:50 3.5ft 6s 4s 20 22 mph 1018.9mb 62f 62f
2:50 3.5ft 5s 4s 20 22 mph 1019.3mb 62f 62f
1:50 3.5ft 6s 4s 20 22 mph 1019.8mb 62f 62f
12:50 3ft 6s 4s 18 22 mph 1020mb 61f 62f
11:50 3.5ft 4s 4s 20 25 mph 1019.8mb 61f 62f
10:50 3.5ft 5s 4s 20 25 mph 1019.8mb 60f 61f
9:50 3.5ft 5s 4s 20 22 mph 1019.8mb 60f 61f
8:50 3.5ft 6s 4s 20 22 mph 1020mb 60f 61f
7:50 3.5ft 5s 4s 20 22 mph 1019.7mb 60f 61f
5:50 4ft 4s 4s 20 25 mph 1019.6mb 60f 61f
4:50 4ft 6s 4s 20 22 mph 1019.6mb 60f 61f
3:50 4.5ft 6s 4s 20 25 mph 1019.6mb 60f 61f
2:50 4.5ft 6s 5s 18 20 mph 1020mb 60f 61f
1:50 4.5ft 5s 5s 18 20 mph 1020.2mb 60f 61f
12:50 4.5ft 5s 4s 20 27 mph 1020.2mb 59f 61f
mié 07/30 11:50 4ft 5s 4s 20 22 mph 1020.3mb 60f 61f
10:50 4ft 5s 4s 18 20 mph 1020.7mb 61f 62f
9:50 4ft 6s 4s 18 20 mph 1020.7mb 61f 62f
8:50 4ft 5s 4s 18 20 mph 1020.3mb 61f 62f
7:50 4ft 5s 4s 20 22 mph 1020.1mb 62f 62f
6:50 4ft 7s 4s 20 25 mph 1020mb 62f 62f
5:50 3.5ft 4s 4s 20 25 mph 1020.3mb 62f 62f
4:50 3.5ft 4s 4s 20 22 mph 1020.5mb 62f 62f
3:50 3.5ft 7s 4s 20 25 mph 1020.9mb 62f 62f
2:50 3.5ft 7s 4s 20 22 mph 1021.2mb 62f 62f
1:50 3.5ft 5s 4s 18 22 mph 1021.8mb 62f 61f
12:50 3.5ft 7s 4s 18 20 mph 1021.9mb 61f 61f
11:50 3.5ft 8s 4s 18 20 mph 1021.8mb 61f 61f
10:50 3.5ft 5s 4s 18 20 mph 1021.8mb 61f 61f
9:50 3.5ft 5s 4s 16 20 mph 1021.7mb 61f 61f
8:50 3.5ft 8s 4s 16 20 mph 1021.6mb 61f 61f
7:50 3.5ft 7s 4s 16 20 mph 1021.5mb 61f 61f
6:50 3.5ft 7s 4s 16 18 mph 1021.4mb 60f 61f
5:50 3.5ft 7s 5s 13 16 mph 1021.3mb 59f 61f
4:50 3.5ft 5s 5s 13 16 mph 1021.1mb 59f 61f
3:50 3.5ft 7s 5s 11 16 mph 1021.3mb 59f 61f
2:50 4ft 8s 5s 11 13 mph 1021.2mb 59f 60f
1:50 3.5ft 8s 5s 16 18 mph 1021.1mb 60f 60f
12:50 3.5ft 7s 5s 13 18 mph 1021.1mb 60f 60f
mar 07/29 11:50 3.5ft 8s 4s 13 16 mph 1021.3mb 60f 60f
10:50 3.5ft 8s 4s 13 18 mph 1021.3mb 60f 61f
9:50 3.5ft 4s 4s 18 20 mph 1021.2mb 60f 61f
8:50 3.5ft 4s 4s 16 20 mph 1021mb 60f 61f
7:50 3.5ft 5s 4s 16 18 mph 1021.1mb 60f 62f
6:50 3.5ft 5s 4s 13 16 mph 1021.1mb 60f 62f
5:50 3.5ft 4s 4s 16 18 mph 1021mb 60f 61f
4:50 3.5ft 8s 4s 16 18 mph 1021.2mb 60f 61f
3:50 3.5ft 4s 4s 16 20 mph 1021.2mb 60f 61f
2:50 3ft 4s 4s 18 20 mph 1021.4mb 60f 61f
1:50 3ft 14s 4s 13 16 mph 1021.8mb 60f 61f
12:50 3ft 8s 4s 16 22 mph 1021.7mb 60f 61f
11:50 3ft 8s 4s 11 13 mph 1022mb 60f 60f
10:50 3ft 5s 4s 13 16 mph 1022mb 60f 60f
9:50 3.5ft 5s 4s 16
mph
1021.9mb 59f 60f
8:50 3.5ft 4s 4s 13 18 mph 1022mb 58f 60f
7:50 3.5ft 5s 4s 16 20 mph 1021.8mb 59f 60f
6:50 3.5ft 5s 4s 13 18 mph 1021.5mb 59f 59f
5:50 3.5ft 5s 4s 16 20 mph 1021.1mb 59f 59f
4:50 4ft 5s 5s 16 18 mph 1020.9mb 59f 59f
3:50 4ft 5s 5s 13 18 mph 1020.5mb 59f 60f
2:50 4ft 5s 5s 16 18 mph 1020.4mb 60f 60f
1:50 4ft 5s 4s 16 20 mph 1020.3mb 60f 60f
12:50 4.5ft 5s 4s 18 20 mph 1020.6mb 60f 60f
lun 07/28 11:50 4.5ft 5s 4s 16 20 mph 1020.6mb 60f 59f
10:50 4ft 5s 4s 18 22 mph 1020.3mb 60f 59f
9:50 4ft 5s 4s 22 25 mph 1020.5mb 60f 60f
8:50 3.5ft 5s 4s 18 20 mph 1020.1mb 61f 61f
7:50 3.5ft 8s 4s 18 20 mph 1019.9mb 61f 62f
6:50 3.5ft 8s 4s 18 20 mph 1019.9mb 61f 62f
5:50 4ft 8s 4s 16 18 mph 1020mb 62f 61f
4:50 3.5ft 8s 4s 20 22 mph 1020.3mb 62f 60f
3:50 4ft 5s 4s 20 25 mph 1020.4mb 62f 60f
2:50 4ft 8s 4s 18 22 mph 1020.7mb 61f 60f
1:50 4ft 8s 4s 20 25 mph 1020.5mb 61f 60f
12:50 4ft 9s 4s 20 22 mph 1020.5mb 61f 60f
11:50 4.5ft 5s 4s 20 22 mph 1020.6mb 62f 59f
10:50 4.5ft 6s 4s 18 20 mph 1020.5mb 62f 58f
9:50 4.5ft 8s 4s 20 22 mph 1020.4mb 62f 59f
8:50 4.5ft 6s 4s 20 25 mph 1020.4mb 62f 59f
7:50 4.5ft 6s 4s 20 25 mph 1020.5mb 62f 59f
6:50 5ft 6s 5s 20 25 mph 1020mb 62f 60f